sensor_id;sensor_type;location;lat;lon;timestamp;temperature;humidity
15341;DHT22;7770;52.158;5.372;2022-09-09T00:00:21;14.50;99.90
15341;DHT22;7770;52.158;5.372;2022-09-09T00:03:19;14.60;99.90
15341;DHT22;7770;52.158;5.372;2022-09-09T00:09:19;14.50;99.90
15341;DHT22;7770;52.158;5.372;2022-09-09T00:12:14;14.60;99.90
15341;DHT22;7770;52.158;5.372;2022-09-09T00:15:16;14.50;99.90
15341;DHT22;7770;52.158;5.372;2022-09-09T00:18:17;14.50;99.90
15341;DHT22;7770;52.158;5.372;2022-09-09T00:21:37;14.50;99.90
15341;DHT22;7770;52.158;5.372;2022-09-09T00:27:50;14.50;99.90
15341;DHT22;7770;52.158;5.372;2022-09-09T00:30:37;14.50;99.90
15341;DHT22;7770;52.158;5.372;2022-09-09T00:33:24;14.40;99.90
15341;DHT22;7770;52.158;5.372;2022-09-09T00:36:14;14.40;99.90
15341;DHT22;7770;52.158;5.372;2022-09-09T00:39:03;14.40;99.90
15341;DHT22;7770;52.158;5.372;2022-09-09T00:42:15;14.40;99.90
15341;DHT22;7770;52.158;5.372;2022-09-09T00:52:39;14.20;99.90
15341;DHT22;7770;52.158;5.372;2022-09-09T00:56:14;14.10;99.90
15341;DHT22;7770;52.158;5.372;2022-09-09T00:59:22;14.10;99.90
15341;DHT22;7770;52.158;5.372;2022-09-09T01:02:27;14.10;99.90
15341;DHT22;7770;52.158;5.372;2022-09-09T01:11:40;14.00;99.90
15341;DHT22;7770;52.158;5.372;2022-09-09T01:17:31;14.00;99.90
15341;DHT22;7770;52.158;5.372;2022-09-09T01:20:31;14.00;99.90
15341;DHT22;7770;52.158;5.372;2022-09-09T01:23:38;14.00;99.90
15341;DHT22;7770;52.158;5.372;2022-09-09T01:26:43;13.90;99.90
15341;DHT22;7770;52.158;5.372;2022-09-09T01:29:30;13.90;99.90
15341;DHT22;7770;52.158;5.372;2022-09-09T01:35:55;13.80;99.90
15341;DHT22;7770;52.158;5.372;2022-09-09T01:38:46;13.80;99.90
15341;DHT22;7770;52.158;5.372;2022-09-09T01:41:32;13.70;99.90
15341;DHT22;7770;52.158;5.372;2022-09-09T01:44:19;13.80;99.90
15341;DHT22;7770;52.158;5.372;2022-09-09T01:47:06;13.70;99.90
15341;DHT22;7770;52.158;5.372;2022-09-09T01:49:52;13.70;99.90
15341;DHT22;7770;52.158;5.372;2022-09-09T01:52:38;13.70;99.90
15341;DHT22;7770;52.158;5.372;2022-09-09T01:55:39;13.70;99.90
15341;DHT22;7770;52.158;5.372;2022-09-09T02:08:20;13.60;99.90
15341;DHT22;7770;52.158;5.372;2022-09-09T02:11:14;13.60;99.90
15341;DHT22;7770;52.158;5.372;2022-09-09T02:14:11;13.60;99.90
15341;DHT22;7770;52.158;5.372;2022-09-09T02:17:09;13.50;99.90
15341;DHT22;7770;52.158;5.372;2022-09-09T02:20:06;13.50;99.90
15341;DHT22;7770;52.158;5.372;2022-09-09T02:22:56;13.50;99.90
15341;DHT22;7770;52.158;5.372;2022-09-09T02:25:43;13.50;99.90
15341;DHT22;7770;52.158;5.372;2022-09-09T02:28:31;13.50;99.90
15341;DHT22;7770;52.158;5.372;2022-09-09T02:31:22;13.50;99.90
15341;DHT22;7770;52.158;5.372;2022-09-09T02:34:09;13.50;99.90
15341;DHT22;7770;52.158;5.372;2022-09-09T02:36:57;13.50;99.90
15341;DHT22;7770;52.158;5.372;2022-09-09T02:39:46;13.50;99.90
15341;DHT22;7770;52.158;5.372;2022-09-09T02:42:37;13.40;99.90
15341;DHT22;7770;52.158;5.372;2022-09-09T02:45:36;13.40;99.90
15341;DHT22;7770;52.158;5.372;2022-09-09T02:48:36;13.40;99.90
15341;DHT22;7770;52.158;5.372;2022-09-09T02:51:35;13.40;99.90
15341;DHT22;7770;52.158;5.372;2022-09-09T02:54:33;13.40;99.90
15341;DHT22;7770;52.158;5.372;2022-09-09T02:57:27;13.40;99.90
15341;DHT22;7770;52.158;5.372;2022-09-09T03:00:15;13.30;99.90
15341;DHT22;7770;52.158;5.372;2022-09-09T03:03:02;13.40;99.90
15341;DHT22;7770;52.158;5.372;2022-09-09T03:05:49;13.40;99.90
15341;DHT22;7770;52.158;5.372;2022-09-09T03:08:35;13.30;99.90
15341;DHT22;7770;52.158;5.372;2022-09-09T03:11:21;13.30;99.90
15341;DHT22;7770;52.158;5.372;2022-09-09T03:14:07;13.30;99.90
15341;DHT22;7770;52.158;5.372;2022-09-09T03:16:54;13.30;99.90
15341;DHT22;7770;52.158;5.372;2022-09-09T03:19:40;13.30;99.90
15341;DHT22;7770;52.158;5.372;2022-09-09T03:22:26;13.20;99.90
15341;DHT22;7770;52.158;5.372;2022-09-09T03:25:12;13.20;99.90
15341;DHT22;7770;52.158;5.372;2022-09-09T03:27:58;13.20;99.90
15341;DHT22;7770;52.158;5.372;2022-09-09T03:30:44;13.20;99.90
15341;DHT22;7770;52.158;5.372;2022-09-09T03:33:30;13.20;99.90
15341;DHT22;7770;52.158;5.372;2022-09-09T03:36:17;13.10;99.90
15341;DHT22;7770;52.158;5.372;2022-09-09T03:39:03;13.20;99.90
15341;DHT22;7770;52.158;5.372;2022-09-09T03:41:49;13.10;99.90
15341;DHT22;7770;52.158;5.372;2022-09-09T03:44:35;13.10;99.90
15341;DHT22;7770;52.158;5.372;2022-09-09T03:47:21;13.10;99.90
15341;DHT22;7770;52.158;5.372;2022-09-09T03:50:08;13.10;99.90
15341;DHT22;7770;52.158;5.372;2022-09-09T03:52:55;13.10;99.90
15341;DHT22;7770;52.158;5.372;2022-09-09T03:55:50;13.10;99.90
15341;DHT22;7770;52.158;5.372;2022-09-09T03:58:40;13.10;99.90
15341;DHT22;7770;52.158;5.372;2022-09-09T04:01:27;13.00;99.90
15341;DHT22;7770;52.158;5.372;2022-09-09T04:04:13;13.10;99.90
15341;DHT22;7770;52.158;5.372;2022-09-09T04:06:59;13.00;99.90
15341;DHT22;7770;52.158;5.372;2022-09-09T04:09:45;13.00;99.90
15341;DHT22;7770;52.158;5.372;2022-09-09T04:12:31;13.00;99.90
15341;DHT22;7770;52.158;5.372;2022-09-09T04:15:17;13.00;99.90
15341;DHT22;7770;52.158;5.372;2022-09-09T04:18:03;13.00;99.90
15341;DHT22;7770;52.158;5.372;2022-09-09T04:20:51;13.00;99.90
15341;DHT22;7770;52.158;5.372;2022-09-09T04:23:38;13.00;99.90
15341;DHT22;7770;52.158;5.372;2022-09-09T04:26:24;13.00;99.90
15341;DHT22;7770;52.158;5.372;2022-09-09T04:29:10;12.90;99.90
15341;DHT22;7770;52.158;5.372;2022-09-09T04:31:56;13.00;99.90
15341;DHT22;7770;52.158;5.372;2022-09-09T04:34:42;13.00;99.90
15341;DHT22;7770;52.158;5.372;2022-09-09T04:37:28;13.00;99.90
15341;DHT22;7770;52.158;5.372;2022-09-09T04:40:14;13.10;99.90
15341;DHT22;7770;52.158;5.372;2022-09-09T04:43:01;13.20;99.90
15341;DHT22;7770;52.158;5.372;2022-09-09T04:45:51;13.20;99.90
15341;DHT22;7770;52.158;5.372;2022-09-09T04:48:38;13.20;99.90
15341;DHT22;7770;52.158;5.372;2022-09-09T04:51:24;13.30;99.90
15341;DHT22;7770;52.158;5.372;2022-09-09T04:54:10;13.30;99.90
15341;DHT22;7770;52.158;5.372;2022-09-09T04:56:57;13.20;99.90
15341;DHT22;7770;52.158;5.372;2022-09-09T04:59:43;13.20;99.90
15341;DHT22;7770;52.158;5.372;2022-09-09T05:02:30;13.20;99.90
15341;DHT22;7770;52.158;5.372;2022-09-09T05:05:16;13.20;99.90
15341;DHT22;7770;52.158;5.372;2022-09-09T05:08:03;13.20;99.90
15341;DHT22;7770;52.158;5.372;2022-09-09T05:10:50;13.20;99.90
15341;DHT22;7770;52.158;5.372;2022-09-09T05:13:36;13.10;99.90
15341;DHT22;7770;52.158;5.372;2022-09-09T05:16:22;13.20;99.90
15341;DHT22;7770;52.158;5.372;2022-09-09T05:19:08;13.20;99.90
15341;DHT22;7770;52.158;5.372;2022-09-09T05:21:54;13.30;99.90
15341;DHT22;7770;52.158;5.372;2022-09-09T05:24:40;13.30;99.90
15341;DHT22;7770;52.158;5.372;2022-09-09T05:27:27;13.30;99.90
15341;DHT22;7770;52.158;5.372;2022-09-09T05:30:13;13.30;99.90
15341;DHT22;7770;52.158;5.372;2022-09-09T05:32:59;13.40;99.90
15341;DHT22;7770;52.158;5.372;2022-09-09T05:35:45;13.40;99.90
15341;DHT22;7770;52.158;5.372;2022-09-09T05:38:31;13.40;99.90
15341;DHT22;7770;52.158;5.372;2022-09-09T05:41:20;13.40;99.90
15341;DHT22;7770;52.158;5.372;2022-09-09T05:44:08;13.40;99.90
15341;DHT22;7770;52.158;5.372;2022-09-09T05:46:54;13.40;99.90
15341;DHT22;7770;52.158;5.372;2022-09-09T05:49:40;13.50;99.90
15341;DHT22;7770;52.158;5.372;2022-09-09T05:52:26;13.50;99.90
15341;DHT22;7770;52.158;5.372;2022-09-09T05:55:12;13.50;99.90
15341;DHT22;7770;52.158;5.372;2022-09-09T05:57:58;13.60;99.90
15341;DHT22;7770;52.158;5.372;2022-09-09T06:00:45;13.90;99.90
15341;DHT22;7770;52.158;5.372;2022-09-09T06:03:31;14.20;99.90
15341;DHT22;7770;52.158;5.372;2022-09-09T06:06:23;14.20;99.90
15341;DHT22;7770;52.158;5.372;2022-09-09T06:09:11;14.10;99.90
15341;DHT22;7770;52.158;5.372;2022-09-09T06:11:57;14.10;99.90
15341;DHT22;7770;52.158;5.372;2022-09-09T06:14:43;14.10;99.90
15341;DHT22;7770;52.158;5.372;2022-09-09T06:17:29;14.10;99.90
15341;DHT22;7770;52.158;5.372;2022-09-09T06:20:15;14.20;99.90
15341;DHT22;7770;52.158;5.372;2022-09-09T06:23:01;14.30;99.90
15341;DHT22;7770;52.158;5.372;2022-09-09T06:25:49;14.40;99.90
15341;DHT22;7770;52.158;5.372;2022-09-09T06:28:36;14.40;99.90
15341;DHT22;7770;52.158;5.372;2022-09-09T06:31:25;14.50;99.90
15341;DHT22;7770;52.158;5.372;2022-09-09T06:34:15;14.40;99.90
15341;DHT22;7770;52.158;5.372;2022-09-09T06:37:01;14.50;99.90
15341;DHT22;7770;52.158;5.372;2022-09-09T06:39:47;14.70;99.90
15341;DHT22;7770;52.158;5.372;2022-09-09T06:42:34;15.10;99.90
15341;DHT22;7770;52.158;5.372;2022-09-09T06:45:19;15.40;99.90
15341;DHT22;7770;52.158;5.372;2022-09-09T06:48:05;15.60;99.90
15341;DHT22;7770;52.158;5.372;2022-09-09T06:51:04;15.90;99.90
15341;DHT22;7770;52.158;5.372;2022-09-09T06:53:54;16.00;99.90
15341;DHT22;7770;52.158;5.372;2022-09-09T06:56:41;16.00;99.90
15341;DHT22;7770;52.158;5.372;2022-09-09T06:59:28;16.00;99.90
15341;DHT22;7770;52.158;5.372;2022-09-09T07:02:16;16.10;99.90
15341;DHT22;7770;52.158;5.372;2022-09-09T07:05:02;16.40;99.90
15341;DHT22;7770;52.158;5.372;2022-09-09T07:07:48;16.80;99.90
15341;DHT22;7770;52.158;5.372;2022-09-09T07:10:34;17.00;99.90
15341;DHT22;7770;52.158;5.372;2022-09-09T07:13:25;17.10;99.90
15341;DHT22;7770;52.158;5.372;2022-09-09T07:16:14;17.50;99.90
15341;DHT22;7770;52.158;5.372;2022-09-09T07:19:04;17.70;99.90
15341;DHT22;7770;52.158;5.372;2022-09-09T07:21:50;17.40;99.90
15341;DHT22;7770;52.158;5.372;2022-09-09T07:24:36;17.00;99.90
15341;DHT22;7770;52.158;5.372;2022-09-09T07:27:22;16.80;99.90
15341;DHT22;7770;52.158;5.372;2022-09-09T07:30:09;16.60;99.90
15341;DHT22;7770;52.158;5.372;2022-09-09T07:32:55;16.70;99.90
15341;DHT22;7770;52.158;5.372;2022-09-09T07:35:42;16.70;99.90
15341;DHT22;7770;52.158;5.372;2022-09-09T07:38:28;16.60;99.90
15341;DHT22;7770;52.158;5.372;2022-09-09T07:41:21;16.60;99.90
15341;DHT22;7770;52.158;5.372;2022-09-09T07:44:13;17.00;99.90
15341;DHT22;7770;52.158;5.372;2022-09-09T07:47:01;17.90;99.90
15341;DHT22;7770;52.158;5.372;2022-09-09T07:49:48;18.70;99.90
15341;DHT22;7770;52.158;5.372;2022-09-09T07:52:38;18.90;99.90
15341;DHT22;7770;52.158;5.372;2022-09-09T07:55:24;18.80;99.90
15341;DHT22;7770;52.158;5.372;2022-09-09T07:58:11;18.90;99.90
15341;DHT22;7770;52.158;5.372;2022-09-09T08:00:57;18.80;99.90
15341;DHT22;7770;52.158;5.372;2022-09-09T08:03:45;19.00;99.90
15341;DHT22;7770;52.158;5.372;2022-09-09T08:06:35;19.00;99.90
15341;DHT22;7770;52.158;5.372;2022-09-09T08:09:23;18.80;99.90
15341;DHT22;7770;52.158;5.372;2022-09-09T08:12:14;18.30;99.90
15341;DHT22;7770;52.158;5.372;2022-09-09T08:15:00;18.10;99.90
15341;DHT22;7770;52.158;5.372;2022-09-09T08:17:46;18.00;99.90
15341;DHT22;7770;52.158;5.372;2022-09-09T08:20:33;17.90;99.90
15341;DHT22;7770;52.158;5.372;2022-09-09T08:23:19;17.70;99.90
15341;DHT22;7770;52.158;5.372;2022-09-09T08:29:00;17.30;99.90
15341;DHT22;7770;52.158;5.372;2022-09-09T08:31:59;17.20;99.90
15341;DHT22;7770;52.158;5.372;2022-09-09T08:34:45;17.20;99.90
15341;DHT22;7770;52.158;5.372;2022-09-09T08:37:31;17.10;99.90
15341;DHT22;7770;52.158;5.372;2022-09-09T08:40:22;17.00;99.90
15341;DHT22;7770;52.158;5.372;2022-09-09T08:43:13;17.00;99.90
15341;DHT22;7770;52.158;5.372;2022-09-09T08:46:13;17.10;99.90
15341;DHT22;7770;52.158;5.372;2022-09-09T08:55:48;17.40;99.90
15341;DHT22;7770;52.158;5.372;2022-09-09T08:58:49;17.50;99.90
15341;DHT22;7770;52.158;5.372;2022-09-09T09:11:02;17.50;99.90
15341;DHT22;7770;52.158;5.372;2022-09-09T09:13:58;17.50;99.90
15341;DHT22;7770;52.158;5.372;2022-09-09T09:19:46;17.40;99.90
15341;DHT22;7770;52.158;5.372;2022-09-09T09:22:44;17.40;99.90
15341;DHT22;7770;52.158;5.372;2022-09-09T09:25:39;17.30;99.90
15341;DHT22;7770;52.158;5.372;2022-09-09T09:28:32;17.20;99.90
15341;DHT22;7770;52.158;5.372;2022-09-09T09:31:20;17.20;99.90
15341;DHT22;7770;52.158;5.372;2022-09-09T09:34:08;17.30;99.90
15341;DHT22;7770;52.158;5.372;2022-09-09T09:36:57;17.30;99.90
15341;DHT22;7770;52.158;5.372;2022-09-09T09:39:47;17.20;99.90
15341;DHT22;7770;52.158;5.372;2022-09-09T09:42:34;17.30;99.90
15341;DHT22;7770;52.158;5.372;2022-09-09T09:45:42;17.40;99.90
15341;DHT22;7770;52.158;5.372;2022-09-09T09:48:31;17.30;99.90
15341;DHT22;7770;52.158;5.372;2022-09-09T09:51:20;17.30;99.90
15341;DHT22;7770;52.158;5.372;2022-09-09T09:54:23;17.30;99.90
15341;DHT22;7770;52.158;5.372;2022-09-09T09:57:16;17.30;99.90
15341;DHT22;7770;52.158;5.372;2022-09-09T10:00:17;17.40;99.90
15341;DHT22;7770;52.158;5.372;2022-09-09T10:06:14;17.30;99.90
15341;DHT22;7770;52.158;5.372;2022-09-09T10:09:03;17.10;99.90
15341;DHT22;7770;52.158;5.372;2022-09-09T10:12:05;17.00;99.90
15341;DHT22;7770;52.158;5.372;2022-09-09T10:18:16;17.30;99.90
15341;DHT22;7770;52.158;5.372;2022-09-09T10:30:36;17.20;99.90
15341;DHT22;7770;52.158;5.372;2022-09-09T10:36:52;17.20;99.90
15341;DHT22;7770;52.158;5.372;2022-09-09T10:39:39;16.90;99.90
15341;DHT22;7770;52.158;5.372;2022-09-09T10:42:31;16.70;99.90
15341;DHT22;7770;52.158;5.372;2022-09-09T10:45:35;16.80;99.90
15341;DHT22;7770;52.158;5.372;2022-09-09T10:55:11;16.90;99.90
15341;DHT22;7770;52.158;5.372;2022-09-09T10:58:02;17.00;99.90
15341;DHT22;7770;52.158;5.372;2022-09-09T11:00:54;17.00;99.90
15341;DHT22;7770;52.158;5.372;2022-09-09T11:03:45;17.10;99.90
15341;DHT22;7770;52.158;5.372;2022-09-09T11:06:40;17.00;99.90
15341;DHT22;7770;52.158;5.372;2022-09-09T11:09:31;17.30;99.90
15341;DHT22;7770;52.158;5.372;2022-09-09T11:12:22;18.30;99.90
15341;DHT22;7770;52.158;5.372;2022-09-09T11:15:20;19.90;99.90
15341;DHT22;7770;52.158;5.372;2022-09-09T11:18:19;20.50;99.90
15341;DHT22;7770;52.158;5.372;2022-09-09T11:21:14;20.30;99.90
15341;DHT22;7770;52.158;5.372;2022-09-09T11:24:10;19.90;99.90
15341;DHT22;7770;52.158;5.372;2022-09-09T11:27:19;19.10;99.90
15341;DHT22;7770;52.158;5.372;2022-09-09T11:40:24;18.50;99.90
15341;DHT22;7770;52.158;5.372;2022-09-09T11:43:19;18.50;99.90
15341;DHT22;7770;52.158;5.372;2022-09-09T11:46:17;18.30;99.90
15341;DHT22;7770;52.158;5.372;2022-09-09T11:49:21;18.40;99.90
15341;DHT22;7770;52.158;5.372;2022-09-09T11:52:25;18.80;99.90
15341;DHT22;7770;52.158;5.372;2022-09-09T11:55:30;18.90;99.90
15341;DHT22;7770;52.158;5.372;2022-09-09T11:58:22;18.70;99.90
15341;DHT22;7770;52.158;5.372;2022-09-09T12:01:24;18.40;99.90
15341;DHT22;7770;52.158;5.372;2022-09-09T12:04:27;18.10;99.90
15341;DHT22;7770;52.158;5.372;2022-09-09T12:10:31;18.40;99.90
15341;DHT22;7770;52.158;5.372;2022-09-09T12:13:20;18.60;99.90
15341;DHT22;7770;52.158;5.372;2022-09-09T12:16:28;19.00;99.90
15341;DHT22;7770;52.158;5.372;2022-09-09T12:19:21;19.40;99.90
15341;DHT22;7770;52.158;5.372;2022-09-09T12:34:53;17.20;99.90
15341;DHT22;7770;52.158;5.372;2022-09-09T12:37:57;17.20;99.90
15341;DHT22;7770;52.158;5.372;2022-09-09T12:40:56;17.50;99.90
15341;DHT22;7770;52.158;5.372;2022-09-09T12:43:43;18.00;99.90
15341;DHT22;7770;52.158;5.372;2022-09-09T12:46:41;18.40;99.90
15341;DHT22;7770;52.158;5.372;2022-09-09T12:49:34;18.80;99.90
15341;DHT22;7770;52.158;5.372;2022-09-09T12:52:34;18.90;99.90
15341;DHT22;7770;52.158;5.372;2022-09-09T12:55:25;18.50;99.90
15341;DHT22;7770;52.158;5.372;2022-09-09T12:58:17;18.20;99.90
15341;DHT22;7770;52.158;5.372;2022-09-09T13:01:04;18.60;99.90
15341;DHT22;7770;52.158;5.372;2022-09-09T13:03:52;18.80;99.90
15341;DHT22;7770;52.158;5.372;2022-09-09T13:06:38;19.10;99.90
15341;DHT22;7770;52.158;5.372;2022-09-09T13:09:24;19.20;99.90
15341;DHT22;7770;52.158;5.372;2022-09-09T13:12:16;19.60;99.90
15341;DHT22;7770;52.158;5.372;2022-09-09T13:15:17;20.10;99.90
15341;DHT22;7770;52.158;5.372;2022-09-09T13:18:11;20.00;99.90
15341;DHT22;7770;52.158;5.372;2022-09-09T13:20:59;19.70;99.90
15341;DHT22;7770;52.158;5.372;2022-09-09T13:23:50;19.50;99.90
15341;DHT22;7770;52.158;5.372;2022-09-09T13:26:37;19.50;99.90
15341;DHT22;7770;52.158;5.372;2022-09-09T13:29:24;19.40;99.90
15341;DHT22;7770;52.158;5.372;2022-09-09T13:32:17;19.60;99.90
15341;DHT22;7770;52.158;5.372;2022-09-09T13:35:03;19.40;99.90
15341;DHT22;7770;52.158;5.372;2022-09-09T13:37:49;19.30;99.90
15341;DHT22;7770;52.158;5.372;2022-09-09T13:40:35;19.20;99.90
15341;DHT22;7770;52.158;5.372;2022-09-09T13:43:24;19.00;99.90
15341;DHT22;7770;52.158;5.372;2022-09-09T13:49:22;18.40;99.90
15341;DHT22;7770;52.158;5.372;2022-09-09T13:52:14;18.50;99.90
15341;DHT22;7770;52.158;5.372;2022-09-09T13:55:02;18.50;99.90
15341;DHT22;7770;52.158;5.372;2022-09-09T13:58:02;18.50;99.90
15341;DHT22;7770;52.158;5.372;2022-09-09T14:00:52;18.40;99.90
15341;DHT22;7770;52.158;5.372;2022-09-09T14:03:38;18.40;99.90
15341;DHT22;7770;52.158;5.372;2022-09-09T14:06:25;18.40;99.90
15341;DHT22;7770;52.158;5.372;2022-09-09T14:09:13;18.30;99.90
15341;DHT22;7770;52.158;5.372;2022-09-09T14:12:00;18.30;99.90
15341;DHT22;7770;52.158;5.372;2022-09-09T14:14:47;18.40;99.90
15341;DHT22;7770;52.158;5.372;2022-09-09T14:17:33;18.40;99.90
15341;DHT22;7770;52.158;5.372;2022-09-09T14:20:21;18.50;99.90
15341;DHT22;7770;52.158;5.372;2022-09-09T14:23:10;18.40;99.90
15341;DHT22;7770;52.158;5.372;2022-09-09T14:25:57;18.30;99.90
15341;DHT22;7770;52.158;5.372;2022-09-09T14:28:43;18.30;99.90
15341;DHT22;7770;52.158;5.372;2022-09-09T14:31:30;18.20;99.90
15341;DHT22;7770;52.158;5.372;2022-09-09T14:34:16;18.20;99.90
15341;DHT22;7770;52.158;5.372;2022-09-09T14:37:03;18.20;99.90
15341;DHT22;7770;52.158;5.372;2022-09-09T14:39:49;18.00;99.90
15341;DHT22;7770;52.158;5.372;2022-09-09T14:42:36;17.90;99.90
15341;DHT22;7770;52.158;5.372;2022-09-09T14:45:23;17.70;99.90
15341;DHT22;7770;52.158;5.372;2022-09-09T14:48:10;17.40;99.90
15341;DHT22;7770;52.158;5.372;2022-09-09T14:50:56;17.10;99.90
15341;DHT22;7770;52.158;5.372;2022-09-09T14:53:43;17.00;99.90
15341;DHT22;7770;52.158;5.372;2022-09-09T14:56:31;16.90;99.90
15341;DHT22;7770;52.158;5.372;2022-09-09T14:59:20;17.00;99.90
15341;DHT22;7770;52.158;5.372;2022-09-09T15:02:08;17.00;99.90
15341;DHT22;7770;52.158;5.372;2022-09-09T15:04:54;17.40;99.90
15341;DHT22;7770;52.158;5.372;2022-09-09T15:07:42;17.90;99.90
15341;DHT22;7770;52.158;5.372;2022-09-09T15:10:28;18.40;99.90
15341;DHT22;7770;52.158;5.372;2022-09-09T15:13:17;18.80;99.90
15341;DHT22;7770;52.158;5.372;2022-09-09T15:16:14;18.90;99.90
15341;DHT22;7770;52.158;5.372;2022-09-09T15:19:02;19.00;99.90
15341;DHT22;7770;52.158;5.372;2022-09-09T15:21:48;19.10;99.90
15341;DHT22;7770;52.158;5.372;2022-09-09T15:24:35;19.00;99.90
15341;DHT22;7770;52.158;5.372;2022-09-09T15:27:21;18.90;99.90
15341;DHT22;7770;52.158;5.372;2022-09-09T15:30:08;18.70;99.90
15341;DHT22;7770;52.158;5.372;2022-09-09T15:32:55;18.60;99.90
15341;DHT22;7770;52.158;5.372;2022-09-09T15:35:41;18.50;99.90
15341;DHT22;7770;52.158;5.372;2022-09-09T15:38:27;18.40;99.90
15341;DHT22;7770;52.158;5.372;2022-09-09T15:41:13;18.30;99.90
15341;DHT22;7770;52.158;5.372;2022-09-09T15:44:01;18.20;99.90
15341;DHT22;7770;52.158;5.372;2022-09-09T15:46:52;18.10;99.90
15341;DHT22;7770;52.158;5.372;2022-09-09T15:49:42;18.10;99.90
15341;DHT22;7770;52.158;5.372;2022-09-09T15:52:28;17.90;99.90
15341;DHT22;7770;52.158;5.372;2022-09-09T15:55:14;17.90;99.90
15341;DHT22;7770;52.158;5.372;2022-09-09T15:58:00;17.80;99.90
15341;DHT22;7770;52.158;5.372;2022-09-09T16:00:47;17.70;99.90
15341;DHT22;7770;52.158;5.372;2022-09-09T16:03:38;17.70;99.90
15341;DHT22;7770;52.158;5.372;2022-09-09T16:06:27;17.70;99.90
15341;DHT22;7770;52.158;5.372;2022-09-09T16:09:14;17.70;99.90
15341;DHT22;7770;52.158;5.372;2022-09-09T16:12:02;17.70;99.90
15341;DHT22;7770;52.158;5.372;2022-09-09T16:14:51;17.70;99.90
15341;DHT22;7770;52.158;5.372;2022-09-09T16:17:37;17.70;99.90
15341;DHT22;7770;52.158;5.372;2022-09-09T16:20:24;17.80;99.90
15341;DHT22;7770;52.158;5.372;2022-09-09T16:23:11;17.90;99.90
15341;DHT22;7770;52.158;5.372;2022-09-09T16:25:57;18.00;99.90
15341;DHT22;7770;52.158;5.372;2022-09-09T16:28:43;18.00;99.90
15341;DHT22;7770;52.158;5.372;2022-09-09T16:31:32;18.00;99.90
15341;DHT22;7770;52.158;5.372;2022-09-09T16:34:18;17.90;99.90
15341;DHT22;7770;52.158;5.372;2022-09-09T16:37:05;17.80;99.90
15341;DHT22;7770;52.158;5.372;2022-09-09T16:39:51;17.70;99.90
15341;DHT22;7770;52.158;5.372;2022-09-09T16:42:37;17.60;99.90
15341;DHT22;7770;52.158;5.372;2022-09-09T16:45:24;17.50;99.90
15341;DHT22;7770;52.158;5.372;2022-09-09T16:48:11;17.40;99.90
15341;DHT22;7770;52.158;5.372;2022-09-09T16:51:03;17.40;99.90
15341;DHT22;7770;52.158;5.372;2022-09-09T16:53:52;17.40;99.90
15341;DHT22;7770;52.158;5.372;2022-09-09T16:56:40;17.40;99.90
15341;DHT22;7770;52.158;5.372;2022-09-09T16:59:28;17.40;99.90
15341;DHT22;7770;52.158;5.372;2022-09-09T17:02:14;17.50;99.90
15341;DHT22;7770;52.158;5.372;2022-09-09T17:05:00;17.40;99.90
15341;DHT22;7770;52.158;5.372;2022-09-09T17:07:46;17.40;99.90
15341;DHT22;7770;52.158;5.372;2022-09-09T17:10:32;17.30;99.90
15341;DHT22;7770;52.158;5.372;2022-09-09T17:13:17;17.20;99.90
15341;DHT22;7770;52.158;5.372;2022-09-09T17:16:05;17.10;99.90
15341;DHT22;7770;52.158;5.372;2022-09-09T17:18:51;17.10;99.90
15341;DHT22;7770;52.158;5.372;2022-09-09T17:21:38;17.00;99.90
15341;DHT22;7770;52.158;5.372;2022-09-09T17:24:25;17.00;99.90
15341;DHT22;7770;52.158;5.372;2022-09-09T17:27:12;17.00;99.90
15341;DHT22;7770;52.158;5.372;2022-09-09T17:29:58;17.00;99.90
15341;DHT22;7770;52.158;5.372;2022-09-09T17:32:44;17.00;99.90
15341;DHT22;7770;52.158;5.372;2022-09-09T17:35:35;17.00;99.90
15341;DHT22;7770;52.158;5.372;2022-09-09T17:38:25;17.10;99.90
15341;DHT22;7770;52.158;5.372;2022-09-09T17:41:25;17.10;99.90
15341;DHT22;7770;52.158;5.372;2022-09-09T17:44:13;17.10;99.90
15341;DHT22;7770;52.158;5.372;2022-09-09T17:47:00;17.00;99.90
15341;DHT22;7770;52.158;5.372;2022-09-09T17:49:46;17.00;99.90
15341;DHT22;7770;52.158;5.372;2022-09-09T17:52:32;17.00;99.90
15341;DHT22;7770;52.158;5.372;2022-09-09T17:55:18;17.00;99.90
15341;DHT22;7770;52.158;5.372;2022-09-09T17:58:04;16.90;99.90
15341;DHT22;7770;52.158;5.372;2022-09-09T18:00:50;16.90;99.90
15341;DHT22;7770;52.158;5.372;2022-09-09T18:03:37;16.90;99.90
15341;DHT22;7770;52.158;5.372;2022-09-09T18:06:27;16.80;99.90
15341;DHT22;7770;52.158;5.372;2022-09-09T18:09:24;16.80;99.90
15341;DHT22;7770;52.158;5.372;2022-09-09T18:12:11;16.80;99.90
15341;DHT22;7770;52.158;5.372;2022-09-09T18:14:57;16.80;99.90
15341;DHT22;7770;52.158;5.372;2022-09-09T18:17:43;16.80;99.90
15341;DHT22;7770;52.158;5.372;2022-09-09T18:20:29;16.80;99.90
15341;DHT22;7770;52.158;5.372;2022-09-09T18:23:15;16.80;99.90
15341;DHT22;7770;52.158;5.372;2022-09-09T18:26:05;16.70;99.90
15341;DHT22;7770;52.158;5.372;2022-09-09T18:28:54;16.70;99.90
15341;DHT22;7770;52.158;5.372;2022-09-09T18:31:42;16.70;99.90
15341;DHT22;7770;52.158;5.372;2022-09-09T18:34:28;16.70;99.90
15341;DHT22;7770;52.158;5.372;2022-09-09T18:37:15;16.70;99.90
15341;DHT22;7770;52.158;5.372;2022-09-09T18:40:02;16.60;99.90
15341;DHT22;7770;52.158;5.372;2022-09-09T18:42:48;16.60;99.90
15341;DHT22;7770;52.158;5.372;2022-09-09T18:45:35;16.60;99.90
15341;DHT22;7770;52.158;5.372;2022-09-09T18:48:22;16.60;99.90
15341;DHT22;7770;52.158;5.372;2022-09-09T18:51:09;16.50;99.90
15341;DHT22;7770;52.158;5.372;2022-09-09T18:54:02;16.50;99.90
15341;DHT22;7770;52.158;5.372;2022-09-09T18:56:50;16.50;99.90
15341;DHT22;7770;52.158;5.372;2022-09-09T18:59:37;16.40;99.90
15341;DHT22;7770;52.158;5.372;2022-09-09T19:02:23;16.40;99.90
15341;DHT22;7770;52.158;5.372;2022-09-09T19:05:09;16.30;99.90
15341;DHT22;7770;52.158;5.372;2022-09-09T19:07:55;16.20;99.90
15341;DHT22;7770;52.158;5.372;2022-09-09T19:10:42;16.20;99.90
15341;DHT22;7770;52.158;5.372;2022-09-09T19:13:28;16.10;99.90
15341;DHT22;7770;52.158;5.372;2022-09-09T19:16:14;16.00;99.90
15341;DHT22;7770;52.158;5.372;2022-09-09T19:19:02;16.00;99.90
15341;DHT22;7770;52.158;5.372;2022-09-09T19:21:50;16.00;99.90
15341;DHT22;7770;52.158;5.372;2022-09-09T19:24:37;16.00;99.90
15341;DHT22;7770;52.158;5.372;2022-09-09T19:27:23;15.90;99.90
15341;DHT22;7770;52.158;5.372;2022-09-09T19:30:09;15.90;99.90
15341;DHT22;7770;52.158;5.372;2022-09-09T19:32:55;15.90;99.90
15341;DHT22;7770;52.158;5.372;2022-09-09T19:35:43;15.80;99.90
15341;DHT22;7770;52.158;5.372;2022-09-09T19:38:30;15.80;99.90
15341;DHT22;7770;52.158;5.372;2022-09-09T19:41:19;15.80;99.90
15341;DHT22;7770;52.158;5.372;2022-09-09T19:44:11;15.80;99.90
15341;DHT22;7770;52.158;5.372;2022-09-09T19:46:58;15.80;99.90
15341;DHT22;7770;52.158;5.372;2022-09-09T19:49:45;15.90;99.90
15341;DHT22;7770;52.158;5.372;2022-09-09T19:52:32;15.90;99.90
15341;DHT22;7770;52.158;5.372;2022-09-09T19:55:18;15.80;99.90
15341;DHT22;7770;52.158;5.372;2022-09-09T19:58:04;15.80;99.90
15341;DHT22;7770;52.158;5.372;2022-09-09T20:00:50;15.70;99.90